createdAt,value
2019-05-22T00:02:34.976Z,13.50
2019-05-22T00:05:14.397Z,13.50
2019-05-22T00:07:45.289Z,13.50
2019-05-22T00:10:20.340Z,13.60
2019-05-22T00:12:50.069Z,13.50
2019-05-22T00:15:21.139Z,13.50
2019-05-22T00:17:51.705Z,13.50
2019-05-22T00:20:25.179Z,13.50
2019-05-22T00:22:55.047Z,13.50
2019-05-22T00:25:33.116Z,13.50
2019-05-22T00:28:02.068Z,13.50
2019-05-22T00:30:35.722Z,13.50
2019-05-22T00:33:08.058Z,13.50
2019-05-22T00:35:38.536Z,13.40
2019-05-22T00:38:09.880Z,13.40
2019-05-22T00:40:45.280Z,13.40
2019-05-22T00:43:17.331Z,13.40
2019-05-22T00:45:50.163Z,13.40
2019-05-22T00:48:22.893Z,13.40
2019-05-22T00:51:10.097Z,13.40
2019-05-22T00:54:01.160Z,13.40
2019-05-22T00:56:36.352Z,13.40
2019-05-22T00:59:11.671Z,13.40
2019-05-22T01:01:46.338Z,13.30
2019-05-22T01:04:18.154Z,13.30
2019-05-22T01:06:49.170Z,13.30
2019-05-22T01:09:25.473Z,13.30
2019-05-22T01:11:56.265Z,13.30
2019-05-22T01:14:42.016Z,13.30
2019-05-22T01:16:59.150Z,13.30
2019-05-22T01:19:30.236Z,13.30
2019-05-22T01:22:06.458Z,13.30
2019-05-22T01:24:39.519Z,13.30
2019-05-22T01:27:09.616Z,13.30
2019-05-22T01:29:40.200Z,13.30
2019-05-22T01:32:21.038Z,13.30
2019-05-22T01:34:50.964Z,13.30
2019-05-22T01:37:20.404Z,13.30
2019-05-22T01:40:04.299Z,13.30
2019-05-22T01:42:39.366Z,13.30
2019-05-22T01:45:12.018Z,13.30
2019-05-22T01:47:54.166Z,13.30
2019-05-22T01:50:41.066Z,13.30
2019-05-22T01:53:12.142Z,13.30
2019-05-22T01:55:41.580Z,13.40
2019-05-22T01:58:12.672Z,13.30
2019-05-22T02:00:44.174Z,13.30
2019-05-22T02:03:14.687Z,13.30
2019-05-22T02:05:44.451Z,13.30
2019-05-22T02:08:14.274Z,13.30
2019-05-22T02:10:46.130Z,13.30
2019-05-22T02:13:20.231Z,13.20
2019-05-22T02:15:49.686Z,13.20
2019-05-22T02:18:19.420Z,13.20
2019-05-22T02:20:50.049Z,13.20
2019-05-22T02:23:19.646Z,13.20
2019-05-22T02:25:50.311Z,13.20
2019-05-22T02:28:21.500Z,13.20
2019-05-22T02:30:52.381Z,13.20
2019-05-22T02:33:24.569Z,13.20
2019-05-22T02:35:55.472Z,13.20
2019-05-22T02:38:29.397Z,13.30
2019-05-22T02:40:59.314Z,13.20
2019-05-22T02:43:30.343Z,13.20
2019-05-22T02:46:00.822Z,13.20
2019-05-22T02:48:33.259Z,13.20
2019-05-22T02:51:02.898Z,13.20
2019-05-22T02:53:32.623Z,13.20
2019-05-22T02:56:02.267Z,13.20
2019-05-22T02:58:33.543Z,13.20
2019-05-22T03:01:05.567Z,13.20
2019-05-22T03:03:38.431Z,13.20
2019-05-22T03:06:12.335Z,13.20
2019-05-22T03:09:07.282Z,13.20
2019-05-22T03:11:39.599Z,13.20
2019-05-22T03:14:11.479Z,13.20
2019-05-22T03:17:03.751Z,13.20
2019-05-22T03:19:41.270Z,13.20
2019-05-22T03:22:24.329Z,13.10
2019-05-22T03:24:55.444Z,13.10
2019-05-22T03:27:45.775Z,13.10
2019-05-22T03:30:25.355Z,13.10
2019-05-22T03:32:56.240Z,13.20
2019-05-22T03:35:27.893Z,13.10
2019-05-22T03:37:59.184Z,13.10
2019-05-22T03:40:29.911Z,13.10
2019-05-22T03:43:05.918Z,13.10
2019-05-22T03:45:37.251Z,13.10
2019-05-22T03:48:07.345Z,13.10
2019-05-22T03:50:37.554Z,13.10
2019-05-22T03:53:18.696Z,13.10
2019-05-22T03:55:49.656Z,13.10
2019-05-22T03:58:19.674Z,13.10
2019-05-22T04:00:51.779Z,13.10
2019-05-22T04:03:23.389Z,13.10
2019-05-22T04:05:53.507Z,13.10
2019-05-22T04:08:25.499Z,13.00
2019-05-22T04:11:02.015Z,13.10
2019-05-22T04:13:32.117Z,13.00
2019-05-22T04:16:03.350Z,13.10
2019-05-22T04:18:35.174Z,13.10
2019-05-22T04:21:04.976Z,13.10
2019-05-22T04:23:34.392Z,13.10
2019-05-22T04:26:05.590Z,13.10
2019-05-22T04:28:37.311Z,13.10
2019-05-22T04:31:07.301Z,13.20
2019-05-22T04:36:10.120Z,13.20
2019-05-22T04:38:39.960Z,13.20
2019-05-22T04:41:10.507Z,13.20
2019-05-22T04:43:40.006Z,13.20
2019-05-22T04:46:09.865Z,13.30
2019-05-22T04:48:39.136Z,13.20
2019-05-22T04:51:25.213Z,13.30
2019-05-22T04:53:56.155Z,13.30
2019-05-22T04:56:26.588Z,13.20
2019-05-22T04:58:56.897Z,13.20
2019-05-22T05:01:27.661Z,13.30
2019-05-22T05:03:57.425Z,13.30
2019-05-22T05:06:29.043Z,13.30
2019-05-22T05:08:58.660Z,13.30
2019-05-22T05:11:28.313Z,13.30
2019-05-22T05:13:57.674Z,13.30
2019-05-22T05:16:27.083Z,13.30
2019-05-22T05:18:57.193Z,13.30
2019-05-22T05:21:26.839Z,13.30
2019-05-22T05:23:56.738Z,13.40
2019-05-22T05:26:26.831Z,13.40
2019-05-22T05:28:56.591Z,13.30
2019-05-22T05:31:26.376Z,13.30
2019-05-22T05:34:23.181Z,13.30
2019-05-22T05:36:52.948Z,13.30
2019-05-22T05:40:03.691Z,13.20
2019-05-22T05:42:33.124Z,13.30
2019-05-22T05:45:02.685Z,13.30
2019-05-22T05:47:35.293Z,13.30
2019-05-22T05:50:06.684Z,13.40
2019-05-22T05:52:37.285Z,13.40
2019-05-22T05:55:08.176Z,13.50
2019-05-22T05:58:23.635Z,13.60
2019-05-22T06:00:57.874Z,13.60
2019-05-22T06:03:37.827Z,13.60
2019-05-22T06:07:00.824Z,13.60
2019-05-22T06:09:31.858Z,13.70
2019-05-22T06:12:05.761Z,13.70
2019-05-22T06:14:36.700Z,13.70
2019-05-22T06:17:43.391Z,13.70
2019-05-22T06:20:16.979Z,13.70
2019-05-22T06:23:27.542Z,13.80
2019-05-22T06:25:58.314Z,13.90
2019-05-22T06:28:30.640Z,13.90
2019-05-22T06:31:01.269Z,13.90
2019-05-22T06:33:34.059Z,14.00
2019-05-22T06:36:07.379Z,13.90
2019-05-22T06:39:10.049Z,13.90
2019-05-22T06:41:40.984Z,13.90
2019-05-22T06:44:39.198Z,14.00
2019-05-22T06:47:12.768Z,14.00
2019-05-22T06:49:44.324Z,14.10
2019-05-22T06:52:14.483Z,14.20
2019-05-22T06:54:44.446Z,14.20
2019-05-22T06:57:27.371Z,14.20
2019-05-22T07:00:12.351Z,14.20
2019-05-22T07:02:31.514Z,14.30
2019-05-22T07:05:01.008Z,14.30
2019-05-22T07:07:30.383Z,14.30
2019-05-22T07:10:00.195Z,14.30
2019-05-22T07:12:35.268Z,14.30
2019-05-22T07:15:40.922Z,14.30
2019-05-22T07:18:13.023Z,14.30
2019-05-22T07:20:44.603Z,14.30
2019-05-22T07:23:16.849Z,14.40
2019-05-22T07:25:47.241Z,14.50
2019-05-22T07:28:19.333Z,14.60
2019-05-22T07:30:50.691Z,14.50
2019-05-22T07:33:20.909Z,14.60
2019-05-22T07:36:08.601Z,14.60
2019-05-22T07:38:22.333Z,14.70
2019-05-22T07:40:53.017Z,14.60
2019-05-22T07:43:26.016Z,14.70
2019-05-22T07:45:57.077Z,14.60
2019-05-22T07:48:29.611Z,14.60
2019-05-22T07:50:59.266Z,14.70
2019-05-22T07:53:29.597Z,14.60
2019-05-22T07:56:00.716Z,14.60
2019-05-22T07:58:31.291Z,14.60
2019-05-22T08:01:02.249Z,14.70
2019-05-22T08:03:32.558Z,14.70
2019-05-22T08:06:02.799Z,14.70
2019-05-22T08:08:35.435Z,14.70
2019-05-22T08:11:06.459Z,14.70
2019-05-22T08:13:37.754Z,14.80
2019-05-22T08:16:08.438Z,14.70
2019-05-22T08:18:39.395Z,14.80
2019-05-22T08:21:09.888Z,14.80
2019-05-22T08:23:39.343Z,14.90
2019-05-22T08:26:10.685Z,14.80
2019-05-22T08:28:40.972Z,14.90
2019-05-22T08:31:13.244Z,15.00
2019-05-22T08:33:43.102Z,15.00
2019-05-22T08:36:12.721Z,15.10
2019-05-22T08:38:44.548Z,15.20
2019-05-22T08:41:16.022Z,15.20
2019-05-22T08:44:14.377Z,15.20
2019-05-22T08:46:17.871Z,15.30
2019-05-22T08:48:49.295Z,15.20
2019-05-22T08:51:19.389Z,15.20
2019-05-22T08:53:48.990Z,15.30
2019-05-22T08:56:19.557Z,15.30
2019-05-22T08:58:48.859Z,15.30
2019-05-22T09:01:18.166Z,15.50
2019-05-22T09:03:47.993Z,15.60
2019-05-22T09:06:17.492Z,15.60
2019-05-22T09:08:47.315Z,15.60
2019-05-22T09:11:16.779Z,15.70
2019-05-22T09:13:46.140Z,15.70
2019-05-22T09:16:16.830Z,15.70
2019-05-22T09:18:46.222Z,15.80
2019-05-22T09:21:16.483Z,15.80
2019-05-22T09:23:47.282Z,15.90
2019-05-22T09:26:17.251Z,16.00
2019-05-22T09:28:46.534Z,16.10
2019-05-22T09:31:15.867Z,16.10
2019-05-22T09:33:45.146Z,16.10
2019-05-22T09:36:14.826Z,16.20
2019-05-22T09:38:45.821Z,16.20
2019-05-22T09:41:15.427Z,16.30
2019-05-22T09:43:44.732Z,16.40
2019-05-22T09:46:15.137Z,16.50
2019-05-22T09:48:44.431Z,16.50
2019-05-22T09:51:13.942Z,16.60
2019-05-22T09:53:43.593Z,16.60
2019-05-22T09:56:13.022Z,16.80
2019-05-22T09:58:42.372Z,16.80
2019-05-22T10:01:15.028Z,16.80
2019-05-22T10:03:44.401Z,16.90
2019-05-22T10:06:13.688Z,17.10
2019-05-22T10:08:43.426Z,17.20
2019-05-22T10:11:12.785Z,17.20
2019-05-22T10:13:42.117Z,17.20
2019-05-22T10:16:11.647Z,17.20
2019-05-22T10:18:41.453Z,17.30
2019-05-22T10:21:11.279Z,17.50
2019-05-22T10:23:40.869Z,17.70
2019-05-22T10:26:11.045Z,17.80
2019-05-22T10:28:42.200Z,17.90
2019-05-22T10:31:13.675Z,18.10
2019-05-22T10:33:42.981Z,18.20
2019-05-22T10:36:12.305Z,18.30
2019-05-22T10:38:41.555Z,18.40
2019-05-22T10:41:11.765Z,18.50
2019-05-22T10:43:41.569Z,18.60
2019-05-22T10:46:11.788Z,18.70
2019-05-22T10:48:40.994Z,18.80
2019-05-22T10:51:10.433Z,18.80
2019-05-22T10:53:39.771Z,18.70
2019-05-22T10:56:09.263Z,18.80
2019-05-22T10:58:38.631Z,18.70
2019-05-22T11:01:09.156Z,18.70
2019-05-22T11:03:38.656Z,18.60
2019-05-22T11:06:08.605Z,18.60
2019-05-22T11:08:39.201Z,18.60
2019-05-22T11:11:09.102Z,18.70
2019-05-22T11:13:40.540Z,18.90
2019-05-22T11:16:10.348Z,18.90
2019-05-22T11:18:40.830Z,18.90
2019-05-22T11:21:10.386Z,18.90
2019-05-22T11:23:51.306Z,18.90
2019-05-22T11:26:11.648Z,18.90
2019-05-22T11:28:41.312Z,18.90
2019-05-22T11:31:13.818Z,19.00
2019-05-22T11:33:43.490Z,18.90
2019-05-22T11:36:13.110Z,19.00
2019-05-22T11:38:42.715Z,19.10
2019-05-22T11:41:12.599Z,19.10
2019-05-22T11:43:42.682Z,19.20
2019-05-22T11:46:12.175Z,19.20
2019-05-22T11:48:41.581Z,19.20
2019-05-22T11:51:11.924Z,19.20
2019-05-22T11:53:41.735Z,19.10
2019-05-22T11:56:11.126Z,19.10
2019-05-22T11:58:40.800Z,19.10
2019-05-22T12:01:10.974Z,19.20
2019-05-22T12:03:41.041Z,19.20
2019-05-22T12:06:10.753Z,19.20
2019-05-22T12:08:40.680Z,19.20
2019-05-22T12:11:14.176Z,19.20
2019-05-22T12:13:43.485Z,19.30
2019-05-22T12:16:13.400Z,19.50
2019-05-22T12:18:43.213Z,19.70
2019-05-22T12:21:13.023Z,19.80
2019-05-22T12:23:42.627Z,19.90
2019-05-22T12:26:12.742Z,20.00
2019-05-22T12:28:42.350Z,20.00
2019-05-22T12:31:12.182Z,20.10
2019-05-22T12:33:41.781Z,20.20
2019-05-22T12:36:13.894Z,20.20
2019-05-22T12:38:44.333Z,20.30
2019-05-22T12:41:14.771Z,20.30
2019-05-22T12:43:45.082Z,20.30
2019-05-22T12:46:14.820Z,20.20
2019-05-22T12:48:45.331Z,20.20
2019-05-22T12:51:16.219Z,20.00
2019-05-22T12:53:46.499Z,20.10
2019-05-22T12:56:16.048Z,20.20
2019-05-22T12:58:46.162Z,20.30
2019-05-22T13:01:16.304Z,20.30
2019-05-22T13:03:47.782Z,20.40
2019-05-22T13:06:19.858Z,20.50
2019-05-22T13:08:49.283Z,20.60
2019-05-22T13:11:19.413Z,20.70
2019-05-22T13:13:48.902Z,20.80
2019-05-22T13:16:18.480Z,20.90
2019-05-22T13:18:50.659Z,21.00
2019-05-22T13:21:22.445Z,21.00
2019-05-22T13:23:53.337Z,21.10
2019-05-22T13:26:24.241Z,21.10
2019-05-22T13:28:54.781Z,20.90
2019-05-22T13:31:24.957Z,21.10
2019-05-22T13:33:55.422Z,21.20
2019-05-22T13:36:25.219Z,21.30
2019-05-22T13:38:54.956Z,21.30
2019-05-22T13:41:24.481Z,21.30
2019-05-22T13:43:54.952Z,21.30
2019-05-22T13:46:24.404Z,21.30
2019-05-22T13:48:53.664Z,21.20
2019-05-22T13:51:23.746Z,21.10
2019-05-22T13:53:53.654Z,20.90
2019-05-22T13:56:25.610Z,20.90
2019-05-22T13:58:56.168Z,20.80
2019-05-22T14:01:26.240Z,20.80
2019-05-22T14:03:55.968Z,20.90
2019-05-22T14:06:25.943Z,21.00
2019-05-22T14:08:55.532Z,21.20
2019-05-22T14:11:25.047Z,21.30
2019-05-22T14:13:55.003Z,21.50
2019-05-22T14:16:24.337Z,21.60
2019-05-22T14:18:53.616Z,21.80
2019-05-22T14:21:22.911Z,22.10
2019-05-22T14:23:52.142Z,22.30
2019-05-22T14:26:21.411Z,22.50
2019-05-22T14:28:53.838Z,22.70
2019-05-22T14:31:23.232Z,22.90
2019-05-22T14:33:52.992Z,23.10
2019-05-22T14:36:22.993Z,23.30
2019-05-22T14:38:53.632Z,23.40
2019-05-22T14:41:23.025Z,23.60
2019-05-22T14:43:52.345Z,23.70
2019-05-22T14:46:21.927Z,23.70
2019-05-22T14:48:51.315Z,23.70
2019-05-22T14:51:22.648Z,23.80
2019-05-22T14:53:54.453Z,23.80
2019-05-22T14:56:24.932Z,23.80
2019-05-22T14:58:55.855Z,24.00
2019-05-22T15:01:26.569Z,24.00
2019-05-22T15:03:56.206Z,24.20
2019-05-22T15:06:26.036Z,24.40
2019-05-22T15:08:55.322Z,24.40
2019-05-22T15:11:25.316Z,24.50
2019-05-22T15:13:54.632Z,24.60
2019-05-22T15:16:24.047Z,24.70
2019-05-22T15:18:54.147Z,24.90
2019-05-22T15:21:25.911Z,25.00
2019-05-22T15:23:56.237Z,25.10
2019-05-22T15:26:26.944Z,25.10
2019-05-22T15:28:56.535Z,25.10
2019-05-22T15:31:25.932Z,25.10
2019-05-22T15:33:55.867Z,25.10
2019-05-22T15:36:25.519Z,25.20
2019-05-22T15:38:55.128Z,25.20
2019-05-22T15:41:25.806Z,25.30
2019-05-22T15:43:55.723Z,25.20
2019-05-22T15:46:26.030Z,25.20
2019-05-22T15:48:56.120Z,25.20
2019-05-22T15:51:31.978Z,25.30
2019-05-22T15:54:05.318Z,25.50
2019-05-22T15:56:36.886Z,25.60
2019-05-22T15:59:10.092Z,25.60
2019-05-22T16:01:39.754Z,25.60
2019-05-22T16:04:12.932Z,25.60
2019-05-22T16:06:42.648Z,25.40
2019-05-22T16:09:15.259Z,25.30
2019-05-22T16:11:47.020Z,25.30
2019-05-22T16:14:17.335Z,25.30
2019-05-22T16:16:50.339Z,25.30
2019-05-22T16:19:21.947Z,25.00
2019-05-22T16:21:54.072Z,24.80
2019-05-22T16:24:23.648Z,24.60
2019-05-22T16:26:53.591Z,24.50
2019-05-22T16:29:25.389Z,24.30
2019-05-22T16:31:56.980Z,24.30
2019-05-22T16:34:28.494Z,24.20
2019-05-22T16:36:58.809Z,24.10
2019-05-22T16:39:31.639Z,24.00
2019-05-22T16:42:02.826Z,23.90
2019-05-22T16:44:33.444Z,23.70
2019-05-22T16:47:04.880Z,23.60
2019-05-22T16:49:35.596Z,23.50
2019-05-22T16:52:09.138Z,23.50
2019-05-22T16:54:41.265Z,23.50
2019-05-22T16:57:11.637Z,23.40
2019-05-22T16:59:41.763Z,23.30
2019-05-22T17:02:14.087Z,23.10
2019-05-22T17:04:43.711Z,23.00
2019-05-22T17:07:14.437Z,22.90
2019-05-22T17:09:44.633Z,22.80
2019-05-22T17:12:16.976Z,22.80
2019-05-22T17:14:49.327Z,22.80
2019-05-22T17:17:20.087Z,22.80
2019-05-22T17:19:49.819Z,22.70
2019-05-22T17:22:20.155Z,22.60
2019-05-22T17:24:49.552Z,22.60
2019-05-22T17:27:19.699Z,22.50
2019-05-22T17:29:51.548Z,22.40
2019-05-22T17:32:23.518Z,22.30
2019-05-22T17:34:52.916Z,22.20
2019-05-22T17:37:22.336Z,22.10
2019-05-22T17:39:53.383Z,22.00
2019-05-22T17:42:25.030Z,21.90
2019-05-22T17:44:55.470Z,21.80
2019-05-22T17:47:27.020Z,21.80
2019-05-22T17:49:56.888Z,21.70
2019-05-22T17:52:27.677Z,21.60
2019-05-22T17:54:57.640Z,21.60
2019-05-22T17:57:27.445Z,21.50
2019-05-22T17:59:57.088Z,21.30
2019-05-22T18:02:31.653Z,21.10
2019-05-22T18:05:00.971Z,21.00
2019-05-22T18:07:31.061Z,20.80
2019-05-22T18:10:00.715Z,20.70
2019-05-22T18:12:30.734Z,20.60
2019-05-22T18:15:01.131Z,20.50
2019-05-22T18:17:30.463Z,20.50
2019-05-22T18:20:00.733Z,20.40
2019-05-22T18:22:30.432Z,20.30
2019-05-22T18:25:00.012Z,20.30
2019-05-22T18:27:30.786Z,20.20
2019-05-22T18:30:00.157Z,20.20
2019-05-22T18:32:31.559Z,20.10
2019-05-22T18:35:00.667Z,20.00
2019-05-22T18:37:30.094Z,19.90
2019-05-22T18:39:59.471Z,19.80
2019-05-22T18:42:29.007Z,19.70
2019-05-22T18:44:58.275Z,19.60
2019-05-22T18:47:27.809Z,19.60
2019-05-22T18:49:57.433Z,19.60
2019-05-22T18:52:39.810Z,19.50
2019-05-22T18:54:57.819Z,19.50
2019-05-22T18:57:27.209Z,19.40
2019-05-22T19:00:02.895Z,19.30
2019-05-22T19:02:27.556Z,19.30
2019-05-22T19:04:56.804Z,19.20
2019-05-22T19:07:26.091Z,19.20
2019-05-22T19:09:58.493Z,19.10
2019-05-22T19:12:27.869Z,19.10
2019-05-22T19:14:57.263Z,19.00
2019-05-22T19:17:27.020Z,19.00
2019-05-22T19:19:57.176Z,18.90
2019-05-22T19:22:29.497Z,18.90
2019-05-22T19:24:58.924Z,18.80
2019-05-22T19:27:28.442Z,18.70
2019-05-22T19:29:57.676Z,18.70
2019-05-22T19:32:27.327Z,18.60
2019-05-22T19:34:56.703Z,18.60
2019-05-22T19:37:26.028Z,18.50
2019-05-22T19:39:55.426Z,18.50
2019-05-22T19:42:24.794Z,18.40
2019-05-22T19:44:54.293Z,18.40
2019-05-22T19:47:24.897Z,18.30
2019-05-22T19:49:57.654Z,18.20
2019-05-22T19:52:41.136Z,18.20
2019-05-22T19:54:58.773Z,18.10
2019-05-22T19:57:28.621Z,18.10
2019-05-22T19:59:58.506Z,18.00
2019-05-22T20:02:28.800Z,18.00
2019-05-22T20:04:58.591Z,17.90
2019-05-22T20:07:29.226Z,17.90
2019-05-22T20:09:58.634Z,17.80
2019-05-22T20:12:28.411Z,17.80
2019-05-22T20:14:58.338Z,17.70
2019-05-22T20:17:28.141Z,17.70
2019-05-22T20:19:57.617Z,17.60
2019-05-22T20:22:27.325Z,17.60
2019-05-22T20:24:57.113Z,17.50
2019-05-22T20:27:27.023Z,17.50
2019-05-22T20:29:56.763Z,17.50
2019-05-22T20:32:26.159Z,17.40
2019-05-22T20:34:55.720Z,17.40
2019-05-22T20:37:25.507Z,17.40
2019-05-22T20:39:54.848Z,17.40
2019-05-22T20:42:24.561Z,17.30
2019-05-22T20:44:53.823Z,17.30
2019-05-22T20:47:25.324Z,17.20
2019-05-22T20:49:55.239Z,17.20
2019-05-22T20:52:27.426Z,17.10
2019-05-22T20:54:57.652Z,17.10
2019-05-22T20:57:28.428Z,17.00
2019-05-22T20:59:57.995Z,17.00
2019-05-22T21:02:30.462Z,16.90
2019-05-22T21:05:01.562Z,16.90
2019-05-22T21:07:34.812Z,16.80
2019-05-22T21:10:06.111Z,16.70
2019-05-22T21:12:36.373Z,16.70
2019-05-22T21:15:07.533Z,16.60
2019-05-22T21:17:38.360Z,16.60
2019-05-22T21:20:09.332Z,16.50
2019-05-22T21:22:40.061Z,16.50
2019-05-22T21:25:10.001Z,16.40
2019-05-22T21:27:39.405Z,16.30
2019-05-22T21:30:10.086Z,16.30
2019-05-22T21:32:40.223Z,16.20
2019-05-22T21:35:10.194Z,16.10
2019-05-22T21:37:41.180Z,16.10
2019-05-22T21:40:11.156Z,16.00
2019-05-22T21:42:43.228Z,16.00
2019-05-22T21:45:13.116Z,15.90
2019-05-22T21:47:44.262Z,15.90
2019-05-22T21:50:14.922Z,15.90
2019-05-22T21:52:44.203Z,15.90
2019-05-22T21:55:14.543Z,15.80
2019-05-22T21:57:44.525Z,15.80
2019-05-22T22:00:19.736Z,15.80
2019-05-22T22:02:50.630Z,15.70
2019-05-22T22:05:20.963Z,15.70
2019-05-22T22:07:50.448Z,15.60
2019-05-22T22:10:20.253Z,15.60
2019-05-22T22:12:51.101Z,15.50
2019-05-22T22:15:22.282Z,15.50
2019-05-22T22:17:51.911Z,15.50
2019-05-22T22:20:22.293Z,15.40
2019-05-22T22:22:51.987Z,15.40
2019-05-22T22:25:24.036Z,15.40
2019-05-22T22:27:53.406Z,15.30
2019-05-22T22:30:36.259Z,15.20
2019-05-22T22:33:10.075Z,15.20
2019-05-22T22:35:40.249Z,15.20
2019-05-22T22:38:10.297Z,15.10
2019-05-22T22:40:42.238Z,15.10
2019-05-22T22:43:14.244Z,15.00
2019-05-22T22:45:56.992Z,15.00
2019-05-22T22:48:32.010Z,14.90
2019-05-22T22:51:00.387Z,14.90
2019-05-22T22:53:31.266Z,14.80
2019-05-22T22:56:01.426Z,14.80
2019-05-22T22:58:31.196Z,14.80
2019-05-22T23:01:03.165Z,14.70
2019-05-22T23:03:32.871Z,14.70
2019-05-22T23:06:03.772Z,14.60
2019-05-22T23:08:34.804Z,14.60
2019-05-22T23:11:07.092Z,14.60
2019-05-22T23:13:37.206Z,14.60
2019-05-22T23:16:07.913Z,14.50
2019-05-22T23:19:15.710Z,14.50
2019-05-22T23:21:45.555Z,14.50
2019-05-22T23:24:15.907Z,14.40
2019-05-22T23:26:45.606Z,14.40
2019-05-22T23:29:15.718Z,14.40
2019-05-22T23:31:46.609Z,14.30
2019-05-22T23:34:16.807Z,14.30
2019-05-22T23:36:46.381Z,14.30
2019-05-22T23:39:17.839Z,14.30
2019-05-22T23:41:48.477Z,14.30
2019-05-22T23:44:21.457Z,14.20
2019-05-22T23:46:51.673Z,14.20
2019-05-22T23:49:21.268Z,14.10
2019-05-22T23:51:51.375Z,14.10
2019-05-22T23:54:20.582Z,14.00
2019-05-22T23:56:52.131Z,13.90
2019-05-22T23:59:22.035Z,13.90
